Time;durP1;ratioP1;P1;durP2;ratioP2;P2;SDS_P1;SDS_P2;PMS_P1;PMS_P2;Temp;Humidity;BMP_temperature;BMP_pressure;BME280_temperature;BME280_humidity;BME280_pressure;Samples;Min_cycle;Max_cycle;Signal;HPM_P1;HPM_P2
2022/08/20 00:00:13;;;;;;;10.23;4.63;;;18.70;99.90;;;;;;5053524;28;20044;-76
2022/08/20 00:02:46;;;;;;;8.55;4.45;;;18.70;99.90;;;;;;5070337;28;20044;-76
2022/08/20 00:05:12;;;;;;;9.02;4.95;;;18.70;99.90;;;;;;5052444;28;20055;-76
2022/08/20 00:07:38;;;;;;;10.93;4.53;;;18.70;99.90;;;;;;5052468;28;20045;-76
2022/08/20 00:10:05;;;;;;;9.85;4.32;;;18.70;99.90;;;;;;5069982;28;20430;-76
2022/08/20 00:12:32;;;;;;;13.20;5.00;;;18.70;99.90;;;;;;5070437;28;20533;-76
2022/08/20 00:14:58;;;;;;;13.95;5.10;;;18.60;99.90;;;;;;5050713;28;20078;-76
2022/08/20 00:17:24;;;;;;;13.20;4.90;;;18.60;99.90;;;;;;5050794;28;20040;-76
2022/08/20 00:19:49;;;;;;;8.73;4.60;;;18.60;99.90;;;;;;5052262;28;20048;-75
2022/08/20 00:22:15;;;;;;;13.77;5.65;;;18.70;99.90;;;;;;5070181;28;20479;-75
2022/08/20 00:24:41;;;;;;;11.77;5.60;;;18.60;99.90;;;;;;5068003;28;20166;-76
2022/08/20 00:27:07;;;;;;;10.55;4.95;;;18.60;99.90;;;;;;5070228;28;20053;-76
2022/08/20 00:29:33;;;;;;;13.23;4.95;;;18.50;99.90;;;;;;5069193;28;20041;-75
2022/08/20 00:31:59;;;;;;;10.63;4.43;;;18.60;99.90;;;;;;5070155;28;20041;-76
2022/08/20 00:34:24;;;;;;;11.52;4.85;;;18.60;99.90;;;;;;5052171;28;20055;-76
2022/08/20 00:36:50;;;;;;;10.80;5.10;;;18.60;99.90;;;;;;5050436;28;20044;-75
2022/08/20 00:39:15;;;;;;;16.17;5.30;;;18.70;99.90;;;;;;5069788;28;20082;-75
2022/08/20 00:41:41;;;;;;;12.77;5.10;;;18.60;99.90;;;;;;5051576;28;20053;-75
2022/08/20 00:44:11;;;;;;;11.73;4.68;;;18.60;99.90;;;;;;5068347;28;20055;-76
2022/08/20 00:46:39;;;;;;;12.18;4.75;;;18.60;99.90;;;;;;5070005;28;20052;-76
2022/08/20 00:49:07;;;;;;;12.50;5.30;;;18.60;99.90;;;;;;5051782;28;20052;-76
2022/08/20 00:52:01;;;;;;;9.90;4.82;;;18.50;99.90;;;;;;5069801;28;20052;-76
2022/08/20 00:54:48;;;;;;;12.35;5.15;;;18.50;99.90;;;;;;5071739;28;20117;-76
2022/08/20 00:57:24;;;;;;;14.40;4.85;;;18.50;99.90;;;;;;5054770;28;20040;-76
2022/08/20 00:59:51;;;;;;;14.40;5.55;;;18.50;99.90;;;;;;5089989;28;20513;-75
2022/08/20 01:02:21;;;;;;;11.35;4.85;;;18.50;99.90;;;;;;5064310;28;20049;-76
2022/08/20 01:04:52;;;;;;;13.57;4.53;;;18.50;99.90;;;;;;5031661;28;20052;-75
2022/08/20 01:07:19;;;;;;;12.40;4.57;;;18.50;99.90;;;;;;5049711;28;20148;-76
2022/08/20 01:09:46;;;;;;;18.42;5.82;;;18.50;99.90;;;;;;5049715;28;20381;-76
2022/08/20 01:12:14;;;;;;;9.00;4.75;;;18.40;99.90;;;;;;5050302;28;20693;-75
2022/08/20 01:14:45;;;;;;;12.52;4.93;;;18.40;99.90;;;;;;5032001;28;20056;-77
2022/08/20 01:17:17;;;;;;;16.48;5.22;;;18.30;99.90;;;;;;5049473;28;20041;-76
2022/08/20 01:20:17;;;;;;;11.68;4.43;;;18.40;99.90;;;;;;5031594;28;20055;-75
2022/08/20 01:25:54;;;;;;;14.63;5.13;;;18.30;99.90;;;;;;5031686;28;20080;-77
2022/08/20 01:28:28;;;;;;;10.30;5.07;;;18.20;99.90;;;;;;5049248;28;20416;-75
2022/08/20 01:30:54;;;;;;;16.03;4.60;;;18.20;99.90;;;;;;5049761;28;20041;-75
2022/08/20 01:33:21;;;;;;;10.32;4.75;;;18.20;99.90;;;;;;5033100;28;20678;-75
2022/08/20 01:35:49;;;;;;;12.52;4.47;;;18.20;99.90;;;;;;5049599;28;20108;-75
2022/08/20 01:38:15;;;;;;;9.95;4.40;;;18.10;99.90;;;;;;5031488;28;20048;-75
2022/08/20 01:40:51;;;;;;;13.55;5.10;;;17.90;99.90;;;;;;5050974;28;20045;-75
2022/08/20 01:43:16;;;;;;;13.82;4.93;;;18.20;99.90;;;;;;5035844;28;20166;-75
2022/08/20 01:45:42;;;;;;;12.43;4.28;;;18.00;99.90;;;;;;5054599;28;20053;-76
2022/08/20 01:48:08;;;;;;;10.98;4.90;;;18.00;99.90;;;;;;5053122;28;20724;-76
2022/08/20 01:50:38;;;;;;;14.88;5.03;;;17.90;99.90;;;;;;5036535;28;20048;-75
2022/08/20 01:53:07;;;;;;;13.85;4.80;;;17.90;99.90;;;;;;5035619;28;20053;-75
2022/08/20 01:55:33;;;;;;;13.82;4.65;;;17.90;99.90;;;;;;5054349;28;20051;-75
2022/08/20 01:57:59;;;;;;;19.17;5.07;;;17.80;99.90;;;;;;5034896;28;20131;-76
2022/08/20 02:00:26;;;;;;;10.73;4.53;;;17.80;99.90;;;;;;5056393;28;20048;-74
2022/08/20 02:02:51;;;;;;;12.55;4.43;;;17.80;99.90;;;;;;5054364;28;20040;-75
2022/08/20 02:05:18;;;;;;;12.13;4.45;;;17.80;99.90;;;;;;5068088;28;20041;-76
2022/08/20 02:07:45;;;;;;;9.25;4.22;;;17.80;99.90;;;;;;5035276;28;20049;-76
2022/08/20 02:10:13;;;;;;;9.88;4.45;;;17.70;99.90;;;;;;5054220;28;20047;-76
2022/08/20 02:12:38;;;;;;;9.60;4.15;;;17.70;99.90;;;;;;5070009;28;20796;-75
2022/08/20 02:15:07;;;;;;;8.70;4.10;;;17.70;99.90;;;;;;5068107;28;20091;-75
2022/08/20 02:17:33;;;;;;;10.77;3.90;;;17.60;99.90;;;;;;5054135;28;20465;-75
2022/08/20 02:20:11;;;;;;;11.93;4.50;;;17.60;99.90;;;;;;5059656;28;20044;-75
2022/08/20 02:22:47;;;;;;;13.20;4.65;;;17.50;99.90;;;;;;5068364;28;20033;-75
2022/08/20 02:25:14;;;;;;;11.80;4.53;;;17.50;99.90;;;;;;5035134;28;20056;-75
2022/08/20 02:27:42;;;;;;;12.80;4.63;;;17.50;99.90;;;;;;5071528;28;20058;-75
2022/08/20 02:30:13;;;;;;;13.45;4.32;;;17.40;99.90;;;;;;5049705;28;20064;-73
2022/08/20 02:32:40;;;;;;;12.82;4.30;;;17.40;99.90;;;;;;5064964;28;20052;-74
2022/08/20 02:35:09;;;;;;;10.63;3.97;;;17.40;99.90;;;;;;5092998;28;20047;-75
2022/08/20 02:37:36;;;;;;;11.27;3.80;;;17.40;99.90;;;;;;5057432;28;20055;-75
2022/08/20 02:40:06;;;;;;;10.63;5.05;;;17.30;99.90;;;;;;5054617;28;20056;-75
2022/08/20 02:42:33;;;;;;;9.13;3.97;;;17.30;99.90;;;;;;5072446;28;20056;-75
2022/08/20 02:44:59;;;;;;;11.13;4.10;;;17.40;99.90;;;;;;5072031;28;20037;-75
2022/08/20 02:47:26;;;;;;;8.90;3.35;;;17.30;99.90;;;;;;5072067;28;20090;-75
2022/08/20 02:49:53;;;;;;;21.00;4.15;;;17.30;99.90;;;;;;5065750;28;20064;-75
2022/08/20 02:52:19;;;;;;;9.50;3.90;;;17.30;99.90;;;;;;5033680;28;20899;-76
2022/08/20 02:54:45;;;;;;;11.13;4.15;;;17.20;99.90;;;;;;5052429;28;20049;-75
2022/08/20 02:57:13;;;;;;;12.70;4.63;;;17.10;99.90;;;;;;5052247;28;20045;-75
2022/08/20 02:59:39;;;;;;;12.20;4.05;;;17.20;99.90;;;;;;5068981;28;20127;-75
2022/08/20 03:02:04;;;;;;;10.15;3.97;;;17.10;99.90;;;;;;5042393;28;20162;-75
2022/08/20 03:04:30;;;;;;;9.85;3.63;;;17.10;99.90;;;;;;5074568;28;20418;-75
2022/08/20 03:06:57;;;;;;;10.02;3.30;;;17.10;99.90;;;;;;5092872;28;20106;-75
2022/08/20 03:09:23;;;;;;;10.68;4.00;;;17.10;99.90;;;;;;5072478;28;20053;-75
2022/08/20 03:11:50;;;;;;;10.27;4.20;;;17.10;99.90;;;;;;5052288;28;20041;-75
2022/08/20 03:14:16;;;;;;;13.07;3.65;;;17.00;99.90;;;;;;5079112;28;20162;-76
2022/08/20 03:16:42;;;;;;;11.45;3.88;;;17.00;99.90;;;;;;5071596;28;20075;-76
2022/08/20 03:19:07;;;;;;;14.70;3.92;;;17.00;99.90;;;;;;5069175;28;20044;-76
2022/08/20 03:21:34;;;;;;;9.93;3.20;;;17.00;99.90;;;;;;5042945;28;20071;-75
2022/08/20 03:23:59;;;;;;;12.55;3.67;;;16.80;99.90;;;;;;5092290;28;20040;-75
2022/08/20 03:26:25;;;;;;;9.77;2.95;;;16.80;99.90;;;;;;5063343;28;20058;-75
2022/08/20 03:28:50;;;;;;;13.20;2.88;;;16.80;99.90;;;;;;5091874;28;20051;-76
2022/08/20 03:31:16;;;;;;;13.85;3.35;;;16.70;99.90;;;;;;5072645;28;20093;-75
2022/08/20 03:33:42;;;;;;;11.55;2.85;;;16.70;99.90;;;;;;5073248;28;20130;-76
2022/08/20 03:36:08;;;;;;;10.57;3.08;;;16.70;99.90;;;;;;5056484;28;20059;-76
2022/08/20 03:38:34;;;;;;;18.75;2.95;;;16.60;99.90;;;;;;5073644;28;20066;-75
2022/08/20 03:41:01;;;;;;;10.40;3.17;;;16.60;99.90;;;;;;5067730;28;20264;-75
2022/08/20 03:43:27;;;;;;;12.55;3.42;;;16.60;99.90;;;;;;5091515;28;20037;-75
2022/08/20 03:45:53;;;;;;;14.60;3.15;;;16.60;99.90;;;;;;5057799;28;20103;-76
2022/08/20 03:48:20;;;;;;;9.52;2.80;;;16.60;99.90;;;;;;5053303;28;20044;-75
2022/08/20 03:50:47;;;;;;;8.25;3.00;;;16.50;99.90;;;;;;5069575;28;20084;-76
2022/08/20 03:53:13;;;;;;;10.45;2.42;;;16.60;99.90;;;;;;5048504;28;20036;-76
2022/08/20 03:55:41;;;;;;;14.82;3.08;;;16.70;99.90;;;;;;5066164;28;20087;-76
2022/08/20 03:58:08;;;;;;;12.40;2.67;;;16.60;99.90;;;;;;5081313;28;20497;-76
2022/08/20 04:00:39;;;;;;;9.23;2.90;;;16.50;99.90;;;;;;5090809;28;20107;-76
2022/08/20 04:03:05;;;;;;;11.95;2.38;;;16.50;99.90;;;;;;5059402;28;20040;-76
2022/08/20 04:05:32;;;;;;;13.18;2.72;;;16.50;99.90;;;;;;5050863;28;20052;-75
2022/08/20 04:07:59;;;;;;;11.07;2.35;;;16.50;99.90;;;;;;5050802;28;20052;-76
2022/08/20 04:10:25;;;;;;;12.70;2.55;;;16.40;99.90;;;;;;5068900;28;20044;-75
2022/08/20 04:12:51;;;;;;;11.15;2.85;;;16.40;99.90;;;;;;5051083;28;20135;-76
2022/08/20 04:15:18;;;;;;;13.70;3.03;;;16.30;99.90;;;;;;5038257;28;20135;-76
2022/08/20 04:17:46;;;;;;;9.52;2.80;;;16.30;99.90;;;;;;5032307;28;20075;-75
2022/08/20 04:20:17;;;;;;;6.90;2.40;;;16.40;99.90;;;;;;5049850;28;20048;-75
2022/08/20 04:22:46;;;;;;;17.05;2.70;;;16.30;99.90;;;;;;5051355;28;20499;-76
2022/08/20 04:25:12;;;;;;;9.13;2.30;;;16.20;99.90;;;;;;5033003;28;20420;-76
2022/08/20 04:27:39;;;;;;;12.88;2.20;;;16.20;99.90;;;;;;5039133;28;20044;-76
2022/08/20 04:30:09;;;;;;;11.23;2.08;;;16.20;99.90;;;;;;5070050;28;20498;-75
2022/08/20 04:32:36;;;;;;;8.65;2.58;;;16.20;99.90;;;;;;5069951;28;20048;-75
2022/08/20 04:35:06;;;;;;;12.55;2.58;;;16.20;99.90;;;;;;5035145;28;20132;-75
2022/08/20 04:37:32;;;;;;;12.20;2.58;;;16.20;99.90;;;;;;5049763;28;20045;-75
2022/08/20 04:42:50;;;;;;;10.00;2.30;;;16.10;99.90;;;;;;5049773;28;20049;-75
2022/08/20 04:45:17;;;;;;;6.03;2.25;;;16.20;99.90;;;;;;5032899;28;20484;-74
2022/08/20 04:47:43;;;;;;;8.55;2.47;;;16.10;99.90;;;;;;5049988;28;20053;-75
2022/08/20 04:50:11;;;;;;;10.88;2.63;;;16.10;99.90;;;;;;5049869;28;20061;-75
2022/08/20 04:52:36;;;;;;;8.50;2.65;;;16.00;99.90;;;;;;5067835;28;20055;-76
2022/08/20 04:55:04;;;;;;;9.18;2.63;;;16.10;99.90;;;;;;5074930;28;20037;-75
2022/08/20 04:57:30;;;;;;;7.63;2.05;;;16.00;99.90;;;;;;5049808;28;20066;-76
2022/08/20 04:59:56;;;;;;;10.23;2.80;;;16.00;99.90;;;;;;5056125;28;20033;-76
2022/08/20 05:02:21;;;;;;;12.52;2.60;;;15.90;99.90;;;;;;5051068;28;20563;-76
2022/08/20 05:04:48;;;;;;;8.30;2.40;;;16.00;99.90;;;;;;5051026;28;20040;-74
2022/08/20 05:07:15;;;;;;;14.85;3.55;;;15.80;99.90;;;;;;5031716;28;20103;-76
2022/08/20 05:09:41;;;;;;;10.45;2.70;;;15.80;99.90;;;;;;5031521;28;20056;-74
2022/08/20 05:12:08;;;;;;;8.90;2.33;;;15.70;99.90;;;;;;5049615;28;20120;-75
2022/08/20 05:14:33;;;;;;;12.02;3.10;;;15.70;99.90;;;;;;5049148;28;20055;-76
2022/08/20 05:17:04;;;;;;;11.98;2.50;;;15.70;99.90;;;;;;5053239;28;20039;-76
2022/08/20 05:19:30;;;;;;;9.63;2.47;;;15.70;99.90;;;;;;5082890;28;20506;-75
2022/08/20 05:21:56;;;;;;;10.57;2.53;;;15.80;99.90;;;;;;5049544;28;20049;-76
2022/08/20 05:24:23;;;;;;;7.93;2.42;;;15.70;99.90;;;;;;5052035;28;20108;-75
2022/08/20 05:26:48;;;;;;;11.05;2.85;;;15.70;99.90;;;;;;5067753;28;20090;-73
2022/08/20 05:29:14;;;;;;;14.20;2.80;;;15.70;99.90;;;;;;5051330;28;20052;-75
2022/08/20 05:31:40;;;;;;;9.23;2.65;;;15.70;99.90;;;;;;5069623;28;20091;-74
2022/08/20 05:34:09;;;;;;;7.15;2.20;;;15.60;99.90;;;;;;5050853;28;20060;-75
2022/08/20 05:36:39;;;;;;;9.27;2.67;;;15.60;99.90;;;;;;5067799;28;20095;-73
2022/08/20 05:39:05;;;;;;;10.15;2.35;;;15.80;99.90;;;;;;5031368;28;20086;-74
2022/08/20 05:41:31;;;;;;;7.93;2.33;;;15.60;99.90;;;;;;5049370;28;20579;-74
2022/08/20 05:44:00;;;;;;;10.00;2.53;;;15.60;99.90;;;;;;5031541;28;20045;-75
2022/08/20 05:46:26;;;;;;;13.77;2.97;;;15.60;99.90;;;;;;5049189;28;20606;-75
2022/08/20 05:48:52;;;;;;;8.95;2.53;;;15.60;99.90;;;;;;5050198;28;20440;-75
2022/08/20 05:51:18;;;;;;;16.52;3.30;;;15.60;99.90;;;;;;5031249;28;20061;-76
2022/08/20 05:53:43;;;;;;;7.28;2.28;;;15.70;99.90;;;;;;5047488;28;20033;-74
2022/08/20 05:56:12;;;;;;;12.57;3.30;;;15.80;99.90;;;;;;5059648;28;20037;-74
2022/08/20 05:58:38;;;;;;;11.93;2.70;;;15.90;99.90;;;;;;5055862;28;20044;-77
2022/08/20 06:01:04;;;;;;;14.43;2.83;;;15.90;99.90;;;;;;5049993;28;20057;-76
2022/08/20 06:06:14;;;;;;;13.63;2.95;;;16.00;99.90;;;;;;5069008;28;20055;-75
2022/08/20 06:08:40;;;;;;;9.02;2.85;;;16.30;99.90;;;;;;5067279;28;20045;-75
2022/08/20 06:11:06;;;;;;;11.30;2.40;;;16.20;99.90;;;;;;5068457;28;20064;-76
2022/08/20 06:13:32;;;;;;;9.65;2.50;;;16.20;99.90;;;;;;5069047;28;20476;-76
2022/08/20 06:15:59;;;;;;;12.27;2.35;;;16.40;99.90;;;;;;5052016;28;20174;-76
2022/08/20 06:18:25;;;;;;;13.40;2.15;;;16.40;99.90;;;;;;5052800;28;20029;-75
2022/08/20 06:20:51;;;;;;;11.15;2.30;;;16.60;99.90;;;;;;5068462;28;20543;-76
2022/08/20 06:23:18;;;;;;;7.63;2.10;;;16.60;99.90;;;;;;5050947;28;20074;-76
2022/08/20 06:25:44;;;;;;;10.10;1.98;;;16.70;99.90;;;;;;5068757;28;20426;-76
2022/08/20 06:28:13;;;;;;;9.70;2.00;;;16.80;99.90;;;;;;5070863;28;20041;-76
2022/08/20 06:30:39;;;;;;;9.75;1.85;;;16.90;99.90;;;;;;5053115;28;20079;-75
2022/08/20 06:33:04;;;;;;;8.30;1.67;;;16.90;99.90;;;;;;5072453;28;20484;-75
2022/08/20 06:35:32;;;;;;;12.68;1.67;;;17.00;99.90;;;;;;5072551;28;20495;-74
2022/08/20 06:37:59;;;;;;;13.20;1.80;;;17.10;99.90;;;;;;5054394;28;20045;-75
2022/08/20 06:40:27;;;;;;;7.90;2.15;;;17.10;99.90;;;;;;5071210;28;20044;-75
2022/08/20 06:42:54;;;;;;;11.10;1.52;;;17.40;99.90;;;;;;5071935;28;20094;-75
2022/08/20 06:45:25;;;;;;;7.45;1.50;;;17.30;99.90;;;;;;5056632;28;20055;-75
2022/08/20 06:47:54;;;;;;;7.82;1.35;;;17.30;99.90;;;;;;5074433;28;20460;-74
2022/08/20 06:50:30;;;;;;;6.10;1.42;;;17.40;99.90;;;;;;5078655;28;20091;-75
2022/08/20 06:52:56;;;;;;;7.28;1.05;;;17.50;99.90;;;;;;5073437;28;20056;-74
2022/08/20 06:55:22;;;;;;;7.45;1.10;;;17.50;99.90;;;;;;5062254;28;20044;-73
2022/08/20 06:58:06;;;;;;;7.68;1.45;;;17.60;99.90;;;;;;5066460;28;20048;-74
2022/08/20 07:00:34;;;;;;;4.45;1.00;;;17.70;99.90;;;;;;5071265;28;20108;-74
2022/08/20 07:03:01;;;;;;;6.43;1.20;;;17.80;99.90;;;;;;5070479;28;20066;-74
2022/08/20 07:05:32;;;;;;;7.10;1.25;;;17.90;99.90;;;;;;5091450;28;20119;-75
2022/08/20 07:07:58;;;;;;;11.20;1.42;;;18.00;99.90;;;;;;5091882;28;20085;-74
2022/08/20 07:10:24;;;;;;;6.95;1.38;;;18.20;99.90;;;;;;5089614;28;20372;-74
2022/08/20 07:12:51;;;;;;;10.82;1.48;;;18.10;99.90;;;;;;5051350;28;20102;-74
2022/08/20 07:15:19;;;;;;;11.93;1.80;;;18.30;99.90;;;;;;5033587;28;20123;-77
2022/08/20 07:17:54;;;;;;;11.70;1.20;;;18.40;99.90;;;;;;5033631;28;20052;-77
2022/08/20 07:20:20;;;;;;;7.80;1.30;;;18.30;99.90;;;;;;5033196;28;20041;-75
2022/08/20 07:22:45;;;;;;;4.70;0.90;;;18.40;99.90;;;;;;5033570;28;20068;-76
2022/08/20 07:25:14;;;;;;;7.43;1.40;;;18.50;99.90;;;;;;5051332;28;20435;-75
2022/08/20 07:27:40;;;;;;;7.00;1.30;;;18.60;99.90;;;;;;5072652;28;20043;-75
2022/08/20 07:32:54;;;;;;;10.05;1.77;;;18.80;99.90;;;;;;5054615;28;20061;-76
2022/08/20 07:35:20;;;;;;;6.63;1.10;;;18.90;99.90;;;;;;5055300;28;20051;-74
2022/08/20 07:37:48;;;;;;;6.85;1.23;;;18.90;99.90;;;;;;5059995;28;20094;-74
2022/08/20 07:40:42;;;;;;;5.13;1.20;;;19.00;99.90;;;;;;5079323;28;20059;-75
2022/08/20 07:43:09;;;;;;;5.57;0.85;;;19.10;99.90;;;;;;5059712;28;20063;-73
2022/08/20 07:45:36;;;;;;;5.18;0.93;;;19.20;99.90;;;;;;5038570;28;20060;-76
2022/08/20 07:48:07;;;;;;;8.50;1.45;;;19.20;99.90;;;;;;5052363;28;20056;-75
2022/08/20 07:50:34;;;;;;;6.35;0.98;;;19.30;99.90;;;;;;5057144;28;20484;-76
2022/08/20 07:53:00;;;;;;;6.68;1.27;;;19.50;99.90;;;;;;5069188;28;20118;-75
2022/08/20 07:55:26;;;;;;;10.50;1.48;;;19.60;99.90;;;;;;5052758;28;20415;-74
2022/08/20 07:57:52;;;;;;;5.50;1.10;;;19.70;99.90;;;;;;5070888;28;20056;-75
2022/08/20 08:00:21;;;;;;;4.95;0.68;;;20.00;99.90;;;;;;5070135;28;20041;-75
2022/08/20 08:02:47;;;;;;;8.20;1.00;;;20.00;99.90;;;;;;5071094;28;20063;-75
2022/08/20 08:05:14;;;;;;;4.63;1.25;;;20.20;99.90;;;;;;5069036;28;20024;-75
2022/08/20 08:07:40;;;;;;;8.30;1.08;;;20.30;99.90;;;;;;5070651;28;20052;-74
2022/08/20 08:10:10;;;;;;;9.15;1.45;;;20.50;99.90;;;;;;5070645;28;20055;-75
2022/08/20 08:12:41;;;;;;;11.15;1.40;;;20.70;99.90;;;;;;5070544;28;20047;-77
2022/08/20 08:15:11;;;;;;;5.53;0.90;;;20.90;99.90;;;;;;5068382;28;20484;-75
2022/08/20 08:17:37;;;;;;;8.05;1.30;;;21.20;99.90;;;;;;5052631;28;20435;-76
2022/08/20 08:20:05;;;;;;;14.20;1.20;;;21.30;99.90;;;;;;5070614;28;20127;-77
2022/08/20 08:22:31;;;;;;;8.32;1.00;;;21.60;99.90;;;;;;5052296;28;20055;-75
2022/08/20 08:25:00;;;;;;;8.70;1.60;;;21.80;99.90;;;;;;5050880;28;20063;-74
2022/08/20 08:27:33;;;;;;;5.45;0.93;;;22.00;99.90;;;;;;5070207;28;20119;-75
2022/08/20 08:30:03;;;;;;;12.65;1.50;;;22.20;99.90;;;;;;5069995;28;20086;-76
2022/08/20 08:32:32;;;;;;;10.52;1.50;;;22.30;99.90;;;;;;5051805;28;20056;-75
2022/08/20 08:35:02;;;;;;;4.70;1.20;;;22.50;99.90;;;;;;5070142;28;20048;-75
2022/08/20 08:37:28;;;;;;;7.88;1.42;;;22.60;99.90;;;;;;5068520;28;20044;-76
2022/08/20 08:39:53;;;;;;;9.18;1.00;;;22.90;99.90;;;;;;5070083;28;20052;-75
2022/08/20 08:42:43;;;;;;;9.23;1.25;;;23.10;99.90;;;;;;5070329;28;20056;-76
2022/08/20 08:45:11;;;;;;;6.40;1.33;;;23.10;99.90;;;;;;5068696;28;20041;-75
2022/08/20 08:47:39;;;;;;;8.20;1.20;;;23.40;99.90;;;;;;5052022;28;20514;-75
2022/08/20 08:50:14;;;;;;;8.60;1.20;;;23.60;99.90;;;;;;5068985;28;20070;-75
2022/08/20 08:52:40;;;;;;;10.25;1.20;;;23.70;99.90;;;;;;5069950;28;20510;-77
2022/08/20 08:55:14;;;;;;;8.75;1.33;;;23.80;99.90;;;;;;5068070;28;20050;-75
2022/08/20 08:57:40;;;;;;;9.10;1.42;;;23.80;99.90;;;;;;5052129;28;20044;-76
2022/08/20 09:00:15;;;;;;;7.53;1.02;;;23.90;99.90;;;;;;5070066;28;20047;-77
2022/08/20 09:02:57;;;;;;;4.53;1.00;;;24.20;99.90;;;;;;5069535;28;20067;-79
2022/08/20 09:05:30;;;;;;;5.20;1.00;;;24.10;99.90;;;;;;5051840;28;20051;-75
2022/08/20 09:07:58;;;;;;;7.10;1.52;;;24.20;99.90;;;;;;5052157;28;20135;-77
2022/08/20 09:10:23;;;;;;;6.53;1.23;;;24.30;99.90;;;;;;5070331;28;20753;-80
2022/08/20 09:12:49;;;;;;;4.72;0.93;;;24.50;99.90;;;;;;5070456;28;20048;-76
2022/08/20 09:15:15;;;;;;;8.35;1.13;;;24.70;99.90;;;;;;5069861;28;20041;-77
2022/08/20 09:17:41;;;;;;;7.80;1.20;;;24.70;99.90;;;;;;5069253;28;20047;-76
2022/08/20 09:20:09;;;;;;;6.32;0.82;;;25.00;99.90;;;;;;5051651;28;20052;-75
2022/08/20 09:22:35;;;;;;;7.18;1.70;;;24.90;99.90;;;;;;5051598;28;20079;-76
2022/08/20 09:25:02;;;;;;;8.13;1.25;;;25.00;99.90;;;;;;5051813;28;20479;-75
2022/08/20 09:27:28;;;;;;;7.72;1.15;;;25.10;99.90;;;;;;5069875;28;20119;-74
2022/08/20 09:29:54;;;;;;;5.25;1.00;;;24.60;99.30;;;;;;5069590;28;20049;-75
2022/08/20 09:32:22;;;;;;;5.57;1.35;;;24.50;99.90;;;;;;5069420;28;20051;-75
2022/08/20 09:34:54;;;;;;;6.93;1.50;;;24.60;99.90;;;;;;5069336;28;20408;-76
2022/08/20 09:37:21;;;;;;;5.93;1.15;;;25.00;99.90;;;;;;5051634;28;20071;-75
2022/08/20 09:39:47;;;;;;;5.90;1.20;;;25.10;99.50;;;;;;5069438;28;20059;-78
2022/08/20 09:42:16;;;;;;;7.45;1.20;;;25.30;99.10;;;;;;5051240;28;20049;-76
2022/08/20 09:44:43;;;;;;;8.25;1.20;;;25.30;96.50;;;;;;5069228;28;20597;-76
2022/08/20 09:47:09;;;;;;;5.13;0.93;;;25.20;98.10;;;;;;5069301;28;20048;-76
2022/08/20 09:49:36;;;;;;;5.57;1.55;;;24.90;98.00;;;;;;5051162;28;20049;-77
2022/08/20 09:52:03;;;;;;;7.43;1.33;;;24.80;98.70;;;;;;5081845;28;20066;-75
2022/08/20 09:54:29;;;;;;;5.88;1.02;;;24.70;98.10;;;;;;5089670;28;20056;-75
2022/08/20 09:57:05;;;;;;;7.32;0.93;;;25.10;98.20;;;;;;5072839;28;20029;-75
2022/08/20 09:59:32;;;;;;;6.35;1.30;;;25.30;96.80;;;;;;5068312;28;20083;-75
2022/08/20 10:01:58;;;;;;;4.18;0.93;;;25.50;96.90;;;;;;5069297;28;20127;-77
2022/08/20 10:04:23;;;;;;;7.85;1.45;;;25.50;97.00;;;;;;5072974;28;20519;-76
2022/08/20 10:06:50;;;;;;;4.93;1.13;;;25.10;95.60;;;;;;5069388;28;20064;-77
2022/08/20 10:09:15;;;;;;;9.57;1.42;;;24.90;96.80;;;;;;5053171;28;20055;-78
2022/08/20 10:11:41;;;;;;;6.30;1.20;;;25.00;96.60;;;;;;5053048;28;20049;-75
2022/08/20 10:14:08;;;;;;;5.45;1.10;;;25.20;97.00;;;;;;5053083;28;20136;-77
2022/08/20 10:16:34;;;;;;;6.85;1.10;;;25.30;96.80;;;;;;5055599;28;20051;-76
2022/08/20 10:19:00;;;;;;;9.48;1.63;;;25.50;96.30;;;;;;5067702;28;20036;-75
2022/08/20 10:21:25;;;;;;;11.18;1.83;;;25.90;97.00;;;;;;5074309;28;20044;-76
2022/08/20 10:23:51;;;;;;;4.88;1.30;;;25.50;96.20;;;;;;5063020;28;20088;-76
2022/08/20 10:26:17;;;;;;;5.88;1.13;;;25.10;95.40;;;;;;5062656;28;20049;-76
2022/08/20 10:28:43;;;;;;;12.63;2.10;;;25.30;96.40;;;;;;5052577;28;20041;-76
2022/08/20 10:31:10;;;;;;;6.88;1.58;;;25.70;96.10;;;;;;5034933;28;20690;-74
2022/08/20 10:33:37;;;;;;;11.55;1.23;;;25.80;95.40;;;;;;5052721;28;20053;-75
2022/08/20 10:36:15;;;;;;;6.15;1.33;;;26.00;94.90;;;;;;5052123;28;20045;-75
2022/08/20 10:38:42;;;;;;;6.93;1.30;;;26.10;93.50;;;;;;5034610;28;20132;-74
2022/08/20 10:41:08;;;;;;;3.92;0.88;;;26.10;92.90;;;;;;5034137;28;20057;-77
2022/08/20 10:43:34;;;;;;;8.68;1.25;;;26.20;93.30;;;;;;5052616;28;20048;-75
2022/08/20 10:45:59;;;;;;;7.10;1.00;;;26.20;93.00;;;;;;5052357;28;20500;-75
2022/08/20 10:48:26;;;;;;;5.50;1.25;;;26.50;92.60;;;;;;5052127;28;20404;-76
2022/08/20 10:50:51;;;;;;;5.90;1.05;;;26.30;92.50;;;;;;5052436;28;20053;-75
2022/08/20 10:53:17;;;;;;;5.70;1.05;;;26.40;92.60;;;;;;5051977;28;20099;-75
2022/08/20 10:55:43;;;;;;;5.43;1.30;;;26.30;92.50;;;;;;5052070;28;20052;-75
2022/08/20 10:58:09;;;;;;;5.40;1.20;;;26.10;92.90;;;;;;5052257;28;20041;-74
2022/08/20 11:00:35;;;;;;;6.03;1.20;;;25.60;92.70;;;;;;5068935;28;20032;-74
2022/08/20 11:03:01;;;;;;;10.88;1.73;;;25.30;92.70;;;;;;5073026;28;20052;-73
2022/08/20 11:05:27;;;;;;;10.40;1.55;;;25.20;93.30;;;;;;5072094;28;20044;-72
2022/08/20 11:07:53;;;;;;;9.25;1.30;;;25.10;92.70;;;;;;5053428;28;20109;-76
2022/08/20 11:10:20;;;;;;;7.78;1.40;;;25.50;93.50;;;;;;5045253;28;20132;-73
2022/08/20 11:12:46;;;;;;;9.02;1.30;;;25.70;93.70;;;;;;5063023;28;20127;-72
2022/08/20 11:15:11;;;;;;;9.35;0.93;;;26.10;93.90;;;;;;5050385;28;20218;-73
2022/08/20 11:17:41;;;;;;;6.18;1.20;;;26.40;93.50;;;;;;5073540;28;20047;-74
2022/08/20 11:20:07;;;;;;;7.93;1.50;;;26.50;92.40;;;;;;5071530;28;20048;-73
2022/08/20 11:22:34;;;;;;;9.43;1.65;;;26.60;93.40;;;;;;5056040;28;20651;-72
2022/08/20 11:24:59;;;;;;;9.93;1.52;;;26.30;91.90;;;;;;5033065;28;20049;-73
2022/08/20 11:27:28;;;;;;;6.47;1.42;;;26.30;91.40;;;;;;5033389;28;20049;-72
2022/08/20 11:29:54;;;;;;;6.07;1.25;;;26.20;91.20;;;;;;5034313;28;20049;-73
2022/08/20 11:32:20;;;;;;;6.05;1.27;;;26.10;92.10;;;;;;5052311;28;20060;-72
2022/08/20 11:34:46;;;;;;;4.65;1.20;;;26.40;93.20;;;;;;5050921;28;20131;-74
2022/08/20 11:37:13;;;;;;;5.75;1.35;;;26.30;92.30;;;;;;5033107;28;20053;-73
2022/08/20 11:39:39;;;;;;;13.57;1.45;;;26.40;92.50;;;;;;5050936;28;20838;-74
2022/08/20 11:42:05;;;;;;;6.55;1.30;;;26.50;92.70;;;;;;5038333;28;20127;-71
2022/08/20 11:44:31;;;;;;;4.65;1.10;;;26.60;92.40;;;;;;5074114;28;20097;-72
2022/08/20 11:47:02;;;;;;;8.38;1.20;;;26.50;91.20;;;;;;5018594;28;20036;-72
2022/08/20 11:49:33;;;;;;;5.47;1.42;;;25.90;90.00;;;;;;5064563;28;20067;-72
2022/08/20 11:51:59;;;;;;;6.85;1.90;;;25.70;90.90;;;;;;5069308;28;20040;-72
2022/08/20 11:54:27;;;;;;;8.68;2.03;;;25.50;91.20;;;;;;5070331;28;20464;-73
2022/08/20 11:56:56;;;;;;;8.65;2.30;;;25.40;91.00;;;;;;5070563;28;20082;-72
2022/08/20 11:59:23;;;;;;;7.55;1.20;;;25.50;91.30;;;;;;5034762;28;20101;-73
2022/08/20 12:01:48;;;;;;;8.80;1.50;;;25.50;91.30;;;;;;5070652;28;20052;-73
2022/08/20 12:04:14;;;;;;;8.93;1.58;;;25.50;91.50;;;;;;5070660;28;20063;-73
2022/08/20 12:06:40;;;;;;;5.50;1.10;;;25.50;91.30;;;;;;5052510;28;20074;-75
2022/08/20 12:09:05;;;;;;;6.72;1.30;;;25.50;91.40;;;;;;5069236;28;20398;-71
2022/08/20 12:11:31;;;;;;;7.68;1.38;;;25.30;90.60;;;;;;5052347;28;20434;-73
2022/08/20 12:13:56;;;;;;;15.68;1.90;;;25.30;90.40;;;;;;5070763;28;20057;-72
2022/08/20 12:16:22;;;;;;;5.55;1.45;;;25.50;91.70;;;;;;5050848;28;20048;-73
2022/08/20 12:18:48;;;;;;;8.40;1.40;;;25.50;91.10;;;;;;5070449;28;20052;-72
2022/08/20 12:21:14;;;;;;;7.90;1.20;;;25.70;91.10;;;;;;5070457;28;20044;-71
2022/08/20 12:23:39;;;;;;;6.68;1.20;;;25.90;90.30;;;;;;5052339;28;20451;-72
2022/08/20 12:26:05;;;;;;;8.25;1.70;;;26.10;90.60;;;;;;5068443;28;20074;-73
2022/08/20 12:28:31;;;;;;;9.00;1.20;;;26.10;90.70;;;;;;5062482;28;20136;-72
2022/08/20 12:30:57;;;;;;;8.38;1.25;;;25.80;91.10;;;;;;5073365;28;20040;-74
2022/08/20 12:33:23;;;;;;;7.32;1.42;;;26.00;91.40;;;;;;5032126;28;20052;-72
2022/08/20 12:35:49;;;;;;;9.18;1.75;;;25.80;91.10;;;;;;5032138;28;20049;-72
2022/08/20 12:38:15;;;;;;;9.23;1.63;;;26.00;91.10;;;;;;5051181;28;20047;-75
2022/08/20 12:40:41;;;;;;;6.22;1.40;;;26.20;91.50;;;;;;5054747;28;20067;-73
2022/08/20 12:43:07;;;;;;;6.05;1.20;;;25.90;91.20;;;;;;5069841;28;20044;-72
2022/08/20 12:45:33;;;;;;;8.38;1.65;;;26.30;91.60;;;;;;5069896;28;20047;-73
2022/08/20 12:48:06;;;;;;;7.75;1.98;;;26.50;91.30;;;;;;5052068;28;20165;-73
2022/08/20 12:50:32;;;;;;;6.38;1.27;;;26.10;90.50;;;;;;5052138;28;20056;-73
2022/08/20 12:52:59;;;;;;;6.13;1.42;;;25.80;89.80;;;;;;5070126;28;20039;-74
2022/08/20 12:55:25;;;;;;;8.98;1.75;;;25.80;90.40;;;;;;5070009;28;20044;-74